Impacts TAF Board
For situational awareness. Not to be used for flight planning purposes.
IDs:

KMEI - Meridian/Key Fld, MS, US

Issued at 2332 UTC 05 Dec 2020
Updated at 0226 UTC 06 Dec 2020
Potential Impact None Slight Moderate High
Time0158Z 06/03Z 06/04Z 06/05Z 06/06Z 06/07Z 06/08Z 06/09Z 06/10Z 06/11Z 06/12Z 06/13Z 06/14Z 06/15Z>>
Type OBS PRVL PRVL PRVL PRVL PRVL PRVL PRVL PRVL PRVL PRVL PRVL PRVL PRVL
VIS 10 >6 >6 >6 >6 >6 >6 >6 >6 >6 >6 >6 >6 >6
CIG -- 250 250 250 250 250 250 250 250 250 250 250 250 250
Cover CLR OVC OVC OVC OVC OVC OVC OVC OVC OVC OVC OVC OVC OVC
FltCat VFR VFR VFR VFR VFR VFR VFR VFR VFR VFR VFR VFR VFR VFR
WX -- -- -- -- -- -- -- -- -- -- -- -- -- --
WDir 200 230 230 230 230 230 230 230 230 230 230 230 230 230
WSpd 3 3 3 3 3 3 3 3 3 3 3 3 3 3
WGst -- -- -- -- -- -- -- -- -- -- -- -- -- --
Raw TAF
KMEI 052332Z 0600/0624 23003KT P6SM OVC250
  FM062100 23005KT P6SM -RA OVC060


Raw METAR
KMEI 060158Z 20003KT 10SM CLR 07/05 A3014 RMK AO2 SLP213 T00720050 $
KMEI 060058Z 00000KT 10SM CLR 09/07 A3014 RMK AO2 SLP213 T00890072 $
KMEI 052358Z 00000KT 10SM CLR 11/08 A3013 RMK AO2 SLP201 I1001 I6/// T01110078 10172 20111 55000 $

METAR Board
Radar Display
Forecast Discussion
For situational awareness. Not to be used for flight planning purposes.